メインページ
METAR-TAF:

METAR-TAF

空港 :

Waterbury-Oxford Airport

オックスフォード, コネチカット州, アメリカ合衆国

緯度: 41-29N, 経度: 073-08W, 海抜: 222m

現時点の気象観測

当レポートは43分前の04:51(UTC)に作成
北/北東の風 13kt、最大23ktの突風を伴う
気温 7°C
湿度 93%
気圧 1012 hPa
視程: 16.1km
高度1200ftの曇り

METAR: KOXC 040451Z AUTO 02013G23KT 10SM OVC012 07/06 A2987 RMK AO2 SLP129 T00720056 401000039

時間: 01:34 (05:34 UTC)


TAF: 見つかりません

4,000以上の空港の気象観測と天気予報(METAR報とTAF報)

利用可能な観測所は地図上に黄色い丸と赤い丸で示す。

丸の上にカーソルを重ねると観測所名を参照できる。

次にクリックすると気象観測と天気予報を参照できる。

マップの切り替え:黒色「×」印の緑ボタンをクリックして拡大、「-」印の緑ボタンをクリックして縮小、緑色の三角印をクリックして隣りの地図に切り替え


METAR-TAF: